Etusivu
METAR-TAF:

METAR-TAF

Lentoasemat :

Laurel, Mississippi, Yhdysvallat

Leveyspiiri: 31-40-23N, Pituuspiiri: 089-10-22W, korkeus merenpinnasta: 73 m

Tämänhetkinen sää

Tämä raportti tehtiin 17 minuuttia sitten, kello 14.35 UTC
Tuuli 7 kn pohjoisesta
Lämpötila 18°C
Kosteus 73%
Ilmanpaine 1009 hPa
Näkyvyys: 16.1 km
Hajanaisia pilviä 5500 ft:n korkeudessa

METAR: KLUL 191435Z AUTO 01007KT 10SM SCT055 18/13 A2981 RMK A02 T01800134

Aika: 09:52 (14:52 UTC)


TAF: puuttuu

Säähavainnot ja -ennusteet yli 4000 lentoasemalta (METAR- ja TAF-raportit).

Käytössä olevat sääasemat on merkitty karttaan keltaisilla ja punaisilla pisteillä.

Aseta hiiri pisteen päälle nähdäksesi sääaseman nimen.

Klikkaa sitten nähdäksesi säähavainnot ja -ennusteet.

Kartan vaihtaminen: klikkaa mustalla rastilla varustettuja vihreitä pisteitä, niin voit zoomata sisään; viivalla varustettua vihreää pistettä, niin voit zoomata ulos tai vihreitä nuolia, niin pääset viereisille kartoille.


METAR-TAF: